sensor_id;sensor_type;location;lat;lon;timestamp;pressure;altitude;pressure_sealevel;temperature;humidity
27144;BME280;14672;50.250;8.312;2023-07-02T00:02:12;98092.38;;;20.25;65.81
27144;BME280;14672;50.250;8.312;2023-07-02T00:04:38;98093.00;;;20.17;65.78
27144;BME280;14672;50.250;8.312;2023-07-02T00:07:04;98093.47;;;20.22;65.79
27144;BME280;14672;50.250;8.312;2023-07-02T00:09:30;98096.88;;;20.20;66.18
27144;BME280;14672;50.250;8.312;2023-07-02T00:11:56;98096.41;;;20.16;66.23
27144;BME280;14672;50.250;8.312;2023-07-02T00:14:21;98099.53;;;20.18;64.67
27144;BME280;14672;50.250;8.312;2023-07-02T00:16:47;98103.25;;;20.13;64.26
27144;BME280;14672;50.250;8.312;2023-07-02T00:19:16;98095.47;;;20.27;64.29
27144;BME280;14672;50.250;8.312;2023-07-02T00:21:42;98102.44;;;20.18;63.74
27144;BME280;14672;50.250;8.312;2023-07-02T00:24:09;98096.41;;;20.16;63.55
27144;BME280;14672;50.250;8.312;2023-07-02T00:26:37;98102.53;;;20.07;63.76
27144;BME280;14672;50.250;8.312;2023-07-02T00:29:04;98109.25;;;20.15;63.86
27144;BME280;14672;50.250;8.312;2023-07-02T00:31:31;98106.69;;;20.11;63.45
27144;BME280;14672;50.250;8.312;2023-07-02T00:33:57;98104.94;;;20.03;63.54
27144;BME280;14672;50.250;8.312;2023-07-02T00:36:23;98104.28;;;20.15;63.28
27144;BME280;14672;50.250;8.312;2023-07-02T00:38:49;98109.09;;;20.07;63.04
27144;BME280;14672;50.250;8.312;2023-07-02T00:41:16;98101.59;;;19.99;62.61
27144;BME280;14672;50.250;8.312;2023-07-02T00:43:42;98109.16;;;20.02;62.35
27144;BME280;14672;50.250;8.312;2023-07-02T00:46:17;98101.06;;;20.00;62.26
27144;BME280;14672;50.250;8.312;2023-07-02T00:48:54;98094.69;;;19.83;62.51
27144;BME280;14672;50.250;8.312;2023-07-02T00:51:26;98104.84;;;19.90;62.32
27144;BME280;14672;50.250;8.312;2023-07-02T00:53:57;98102.97;;;19.92;62.33
27144;BME280;14672;50.250;8.312;2023-07-02T00:56:24;98103.03;;;19.87;62.52
27144;BME280;14672;50.250;8.312;2023-07-02T00:58:54;98097.88;;;19.80;62.78
27144;BME280;14672;50.250;8.312;2023-07-02T01:01:26;98102.38;;;19.75;63.08
27144;BME280;14672;50.250;8.312;2023-07-02T01:06:24;98108.03;;;19.62;63.18
27144;BME280;14672;50.250;8.312;2023-07-02T01:08:56;98114.31;;;19.60;63.63
27144;BME280;14672;50.250;8.312;2023-07-02T01:11:34;98116.00;;;19.50;63.85
27144;BME280;14672;50.250;8.312;2023-07-02T01:14:29;98112.16;;;19.42;63.70
27144;BME280;14672;50.250;8.312;2023-07-02T01:16:57;98113.94;;;19.45;63.96
27144;BME280;14672;50.250;8.312;2023-07-02T01:19:45;98115.88;;;19.32;64.12
27144;BME280;14672;50.250;8.312;2023-07-02T01:22:21;98115.19;;;19.20;64.58
27144;BME280;14672;50.250;8.312;2023-07-02T01:24:49;98111.69;;;19.33;64.12
27144;BME280;14672;50.250;8.312;2023-07-02T01:27:16;98114.56;;;19.33;63.90
27144;BME280;14672;50.250;8.312;2023-07-02T01:29:42;98117.38;;;19.08;65.24
27144;BME280;14672;50.250;8.312;2023-07-02T01:32:13;98112.50;;;18.98;65.69
27144;BME280;14672;50.250;8.312;2023-07-02T01:34:39;98115.91;;;18.96;65.19
27144;BME280;14672;50.250;8.312;2023-07-02T01:37:05;98114.97;;;18.83;65.74
27144;BME280;14672;50.250;8.312;2023-07-02T01:39:31;98111.38;;;18.71;65.86
27144;BME280;14672;50.250;8.312;2023-07-02T01:42:18;98108.75;;;18.67;65.97
27144;BME280;14672;50.250;8.312;2023-07-02T01:44:48;98108.25;;;18.69;65.79
27144;BME280;14672;50.250;8.312;2023-07-02T01:47:15;98108.34;;;18.52;65.89
27144;BME280;14672;50.250;8.312;2023-07-02T01:49:41;98112.00;;;18.47;66.01
27144;BME280;14672;50.250;8.312;2023-07-02T01:52:07;98117.25;;;18.43;66.10
27144;BME280;14672;50.250;8.312;2023-07-02T01:54:35;98115.75;;;18.31;66.22
27144;BME280;14672;50.250;8.312;2023-07-02T01:57:01;98113.47;;;18.13;66.63
27144;BME280;14672;50.250;8.312;2023-07-02T01:59:26;98111.16;;;18.06;67.52
27144;BME280;14672;50.250;8.312;2023-07-02T02:01:52;98115.31;;;18.05;68.10
27144;BME280;14672;50.250;8.312;2023-07-02T02:04:21;98117.69;;;18.06;67.62
27144;BME280;14672;50.250;8.312;2023-07-02T02:06:47;98118.75;;;18.03;68.20
27144;BME280;14672;50.250;8.312;2023-07-02T02:09:13;98128.63;;;18.08;67.96
27144;BME280;14672;50.250;8.312;2023-07-02T02:11:41;98121.06;;;18.10;67.98
27144;BME280;14672;50.250;8.312;2023-07-02T02:14:07;98125.81;;;18.02;68.17
27144;BME280;14672;50.250;8.312;2023-07-02T02:16:33;98122.66;;;18.06;68.44
27144;BME280;14672;50.250;8.312;2023-07-02T02:19:02;98127.38;;;18.03;68.64
27144;BME280;14672;50.250;8.312;2023-07-02T02:21:28;98129.69;;;18.05;68.24
27144;BME280;14672;50.250;8.312;2023-07-02T02:23:54;98135.94;;;18.14;68.29
27144;BME280;14672;50.250;8.312;2023-07-02T02:26:21;98136.75;;;18.09;68.66
27144;BME280;14672;50.250;8.312;2023-07-02T02:28:48;98134.66;;;18.10;69.06
27144;BME280;14672;50.250;8.312;2023-07-02T02:31:15;98139.84;;;18.17;69.06
27144;BME280;14672;50.250;8.312;2023-07-02T02:33:41;98136.19;;;18.22;69.32
27144;BME280;14672;50.250;8.312;2023-07-02T02:36:12;98142.72;;;18.22;68.59
27144;BME280;14672;50.250;8.312;2023-07-02T02:38:38;98141.88;;;18.27;68.51
27144;BME280;14672;50.250;8.312;2023-07-02T02:41:04;98146.88;;;18.21;69.12
27144;BME280;14672;50.250;8.312;2023-07-02T02:43:30;98144.25;;;18.23;69.25
27144;BME280;14672;50.250;8.312;2023-07-02T02:45:55;98152.13;;;18.23;69.60
27144;BME280;14672;50.250;8.312;2023-07-02T02:48:21;98151.84;;;18.21;70.50
27144;BME280;14672;50.250;8.312;2023-07-02T02:50:48;98147.16;;;18.18;70.81
27144;BME280;14672;50.250;8.312;2023-07-02T02:53:14;98148.69;;;18.30;68.26
27144;BME280;14672;50.250;8.312;2023-07-02T02:55:40;98147.63;;;18.39;66.97
27144;BME280;14672;50.250;8.312;2023-07-02T02:58:06;98148.63;;;18.41;65.93
27144;BME280;14672;50.250;8.312;2023-07-02T03:00:32;98151.50;;;18.47;66.21
27144;BME280;14672;50.250;8.312;2023-07-02T03:02:58;98152.75;;;18.51;65.97
27144;BME280;14672;50.250;8.312;2023-07-02T03:05:24;98148.34;;;18.45;66.20
27144;BME280;14672;50.250;8.312;2023-07-02T03:07:51;98149.94;;;18.46;66.47
27144;BME280;14672;50.250;8.312;2023-07-02T03:10:17;98147.53;;;18.55;64.39
27144;BME280;14672;50.250;8.312;2023-07-02T03:12:43;98136.78;;;18.61;64.54
27144;BME280;14672;50.250;8.312;2023-07-02T03:15:10;98145.22;;;18.54;65.08
27144;BME280;14672;50.250;8.312;2023-07-02T03:17:36;98155.66;;;18.57;64.97
27144;BME280;14672;50.250;8.312;2023-07-02T03:20:03;98148.59;;;18.52;64.65
27144;BME280;14672;50.250;8.312;2023-07-02T03:22:30;98154.88;;;18.56;63.74
27144;BME280;14672;50.250;8.312;2023-07-02T03:24:55;98156.69;;;18.48;64.60
27144;BME280;14672;50.250;8.312;2023-07-02T03:27:21;98158.50;;;18.51;64.19
27144;BME280;14672;50.250;8.312;2023-07-02T03:29:52;98161.16;;;18.49;64.52
27144;BME280;14672;50.250;8.312;2023-07-02T03:32:18;98169.50;;;18.58;63.38
27144;BME280;14672;50.250;8.312;2023-07-02T03:34:44;98158.28;;;18.55;62.84
27144;BME280;14672;50.250;8.312;2023-07-02T03:37:09;98154.88;;;18.45;62.83
27144;BME280;14672;50.250;8.312;2023-07-02T03:39:35;98150.22;;;18.42;63.77
27144;BME280;14672;50.250;8.312;2023-07-02T03:42:01;98150.44;;;18.50;63.25
27144;BME280;14672;50.250;8.312;2023-07-02T03:44:26;98150.72;;;18.46;62.98
27144;BME280;14672;50.250;8.312;2023-07-02T03:46:52;98153.09;;;18.42;63.46
27144;BME280;14672;50.250;8.312;2023-07-02T03:49:18;98154.38;;;18.41;63.10
27144;BME280;14672;50.250;8.312;2023-07-02T03:51:44;98163.31;;;18.32;63.50
27144;BME280;14672;50.250;8.312;2023-07-02T03:54:10;98160.16;;;18.36;63.61
27144;BME280;14672;50.250;8.312;2023-07-02T03:56:36;98166.97;;;18.38;63.50
27144;BME280;14672;50.250;8.312;2023-07-02T03:59:02;98183.66;;;18.45;63.23
27144;BME280;14672;50.250;8.312;2023-07-02T04:01:27;98175.34;;;18.30;63.75
27144;BME280;14672;50.250;8.312;2023-07-02T04:03:53;98181.91;;;18.31;63.99
27144;BME280;14672;50.250;8.312;2023-07-02T04:06:19;98179.78;;;18.31;64.65
27144;BME280;14672;50.250;8.312;2023-07-02T04:08:45;98175.09;;;18.28;65.68
27144;BME280;14672;50.250;8.312;2023-07-02T04:11:12;98184.72;;;18.42;64.33
27144;BME280;14672;50.250;8.312;2023-07-02T04:13:38;98188.13;;;18.41;63.68
27144;BME280;14672;50.250;8.312;2023-07-02T04:16:05;98181.06;;;18.36;63.72
27144;BME280;14672;50.250;8.312;2023-07-02T04:18:31;98181.56;;;18.40;63.40
27144;BME280;14672;50.250;8.312;2023-07-02T04:20:58;98198.84;;;18.40;63.60
27144;BME280;14672;50.250;8.312;2023-07-02T04:23:25;98193.31;;;18.48;63.57
27144;BME280;14672;50.250;8.312;2023-07-02T04:25:51;98203.78;;;18.45;64.27
27144;BME280;14672;50.250;8.312;2023-07-02T04:28:17;98197.25;;;18.45;63.86
27144;BME280;14672;50.250;8.312;2023-07-02T04:30:43;98200.91;;;18.45;64.33
27144;BME280;14672;50.250;8.312;2023-07-02T04:33:09;98212.13;;;18.49;64.56
27144;BME280;14672;50.250;8.312;2023-07-02T04:35:35;98207.69;;;18.48;64.44
27144;BME280;14672;50.250;8.312;2023-07-02T04:38:01;98223.41;;;18.52;64.89
27144;BME280;14672;50.250;8.312;2023-07-02T04:40:27;98218.44;;;18.53;64.31
27144;BME280;14672;50.250;8.312;2023-07-02T04:42:53;98221.00;;;18.62;64.42
27144;BME280;14672;50.250;8.312;2023-07-02T04:45:26;98222.31;;;18.61;65.06
27144;BME280;14672;50.250;8.312;2023-07-02T04:47:52;98222.34;;;18.55;65.18
27144;BME280;14672;50.250;8.312;2023-07-02T04:50:24;98228.06;;;18.61;65.15
27144;BME280;14672;50.250;8.312;2023-07-02T04:52:49;98221.00;;;18.62;65.00
27144;BME280;14672;50.250;8.312;2023-07-02T04:55:15;98235.34;;;18.67;64.92
27144;BME280;14672;50.250;8.312;2023-07-02T04:57:41;98230.16;;;18.66;64.94
27144;BME280;14672;50.250;8.312;2023-07-02T05:00:07;98239.25;;;18.75;65.10
27144;BME280;14672;50.250;8.312;2023-07-02T05:02:34;98238.78;;;18.66;64.87
27144;BME280;14672;50.250;8.312;2023-07-02T05:04:59;98236.16;;;18.68;65.24
27144;BME280;14672;50.250;8.312;2023-07-02T05:07:25;98227.22;;;18.71;65.06
27144;BME280;14672;50.250;8.312;2023-07-02T05:09:51;98243.97;;;18.79;65.87
27144;BME280;14672;50.250;8.312;2023-07-02T05:12:21;98242.91;;;18.76;66.13
27144;BME280;14672;50.250;8.312;2023-07-02T05:14:46;98235.84;;;18.83;66.47
27144;BME280;14672;50.250;8.312;2023-07-02T05:17:12;98241.25;;;18.92;65.98
27144;BME280;14672;50.250;8.312;2023-07-02T05:19:41;98246.78;;;18.84;65.05
27144;BME280;14672;50.250;8.312;2023-07-02T05:22:08;98246.78;;;18.90;65.35
27144;BME280;14672;50.250;8.312;2023-07-02T05:24:34;98250.44;;;18.90;65.53
27144;BME280;14672;50.250;8.312;2023-07-02T05:27:04;98254.88;;;18.91;65.09
27144;BME280;14672;50.250;8.312;2023-07-02T05:29:36;98248.81;;;19.00;64.82
27144;BME280;14672;50.250;8.312;2023-07-02T05:32:02;98242.53;;;19.02;63.76
27144;BME280;14672;50.250;8.312;2023-07-02T05:34:27;98246.22;;;18.97;62.38
27144;BME280;14672;50.250;8.312;2023-07-02T05:36:53;98253.81;;;18.94;62.88
27144;BME280;14672;50.250;8.312;2023-07-02T05:39:19;98251.34;;;19.15;62.67
27144;BME280;14672;50.250;8.312;2023-07-02T05:41:44;98250.59;;;19.09;63.54
27144;BME280;14672;50.250;8.312;2023-07-02T05:44:10;98252.09;;;19.21;63.42
27144;BME280;14672;50.250;8.312;2023-07-02T05:46:36;98251.53;;;19.28;62.43
27144;BME280;14672;50.250;8.312;2023-07-02T05:49:03;98249.94;;;19.33;61.28
27144;BME280;14672;50.250;8.312;2023-07-02T05:51:28;98248.63;;;19.34;62.07
27144;BME280;14672;50.250;8.312;2023-07-02T05:53:54;98254.38;;;19.34;59.90
27144;BME280;14672;50.250;8.312;2023-07-02T05:56:20;98253.81;;;19.35;59.39
27144;BME280;14672;50.250;8.312;2023-07-02T05:58:46;98253.00;;;19.40;59.47
27144;BME280;14672;50.250;8.312;2023-07-02T06:01:12;98259.28;;;19.50;60.15
27144;BME280;14672;50.250;8.312;2023-07-02T06:03:42;98261.28;;;19.60;60.09
27144;BME280;14672;50.250;8.312;2023-07-02T06:06:08;98263.09;;;19.63;59.28
27144;BME280;14672;50.250;8.312;2023-07-02T06:08:34;98264.66;;;19.64;59.81
27144;BME280;14672;50.250;8.312;2023-07-02T06:11:00;98268.56;;;19.67;60.71
27144;BME280;14672;50.250;8.312;2023-07-02T06:13:25;98269.84;;;19.72;60.40
27144;BME280;14672;50.250;8.312;2023-07-02T06:15:51;98272.09;;;19.84;60.27
27144;BME280;14672;50.250;8.312;2023-07-02T06:18:20;98267.34;;;19.87;59.95
27144;BME280;14672;50.250;8.312;2023-07-02T06:20:46;98268.88;;;19.93;59.49
27144;BME280;14672;50.250;8.312;2023-07-02T06:23:12;98269.38;;;19.97;59.63
27144;BME280;14672;50.250;8.312;2023-07-02T06:25:38;98273.53;;;20.02;59.18
27144;BME280;14672;50.250;8.312;2023-07-02T06:28:04;98286.84;;;20.05;59.67
27144;BME280;14672;50.250;8.312;2023-07-02T06:30:29;98279.22;;;20.07;60.34
27144;BME280;14672;50.250;8.312;2023-07-02T06:32:55;98286.53;;;20.14;60.74
27144;BME280;14672;50.250;8.312;2023-07-02T06:35:21;98287.28;;;20.14;59.31
27144;BME280;14672;50.250;8.312;2023-07-02T06:37:47;98291.53;;;20.08;58.78
27144;BME280;14672;50.250;8.312;2023-07-02T06:40:13;98293.53;;;20.18;58.02
27144;BME280;14672;50.250;8.312;2023-07-02T06:42:39;98286.13;;;20.29;58.62
27144;BME280;14672;50.250;8.312;2023-07-02T06:45:06;98294.88;;;20.17;58.05
27144;BME280;14672;50.250;8.312;2023-07-02T06:47:32;98306.13;;;20.21;57.95
27144;BME280;14672;50.250;8.312;2023-07-02T06:50:01;98292.72;;;19.94;57.70
27144;BME280;14672;50.250;8.312;2023-07-02T06:52:26;98292.47;;;19.92;57.96
27144;BME280;14672;50.250;8.312;2023-07-02T06:54:52;98300.16;;;20.13;57.51
27144;BME280;14672;50.250;8.312;2023-07-02T06:57:18;98298.53;;;20.18;58.25
27144;BME280;14672;50.250;8.312;2023-07-02T06:59:43;98295.69;;;20.12;58.03
27144;BME280;14672;50.250;8.312;2023-07-02T07:02:09;98297.00;;;20.11;57.91
27144;BME280;14672;50.250;8.312;2023-07-02T07:04:35;98305.56;;;20.23;57.78
27144;BME280;14672;50.250;8.312;2023-07-02T07:07:01;98301.66;;;20.20;57.61
27144;BME280;14672;50.250;8.312;2023-07-02T07:09:30;98306.56;;;20.31;57.99
27144;BME280;14672;50.250;8.312;2023-07-02T07:11:56;98309.19;;;20.34;57.51
27144;BME280;14672;50.250;8.312;2023-07-02T07:14:22;98306.34;;;20.29;57.88
27144;BME280;14672;50.250;8.312;2023-07-02T07:16:48;98307.34;;;20.31;58.49
27144;BME280;14672;50.250;8.312;2023-07-02T07:19:14;98308.25;;;20.15;57.69
27144;BME280;14672;50.250;8.312;2023-07-02T07:21:40;98302.63;;;20.34;57.47
27144;BME280;14672;50.250;8.312;2023-07-02T07:24:06;98303.16;;;20.32;57.39
27144;BME280;14672;50.250;8.312;2023-07-02T07:26:32;98305.88;;;20.49;57.04
27144;BME280;14672;50.250;8.312;2023-07-02T07:28:58;98299.97;;;20.60;56.63
27144;BME280;14672;50.250;8.312;2023-07-02T07:31:24;98304.56;;;20.50;57.10
27144;BME280;14672;50.250;8.312;2023-07-02T07:33:50;98301.59;;;20.55;57.16
27144;BME280;14672;50.250;8.312;2023-07-02T07:36:16;98298.69;;;20.55;57.03
27144;BME280;14672;50.250;8.312;2023-07-02T07:38:43;98300.50;;;20.58;57.01
27144;BME280;14672;50.250;8.312;2023-07-02T07:41:09;98310.38;;;20.69;57.18
27144;BME280;14672;50.250;8.312;2023-07-02T07:43:35;98306.72;;;20.68;56.65
27144;BME280;14672;50.250;8.312;2023-07-02T07:46:01;98308.19;;;20.75;56.07
27144;BME280;14672;50.250;8.312;2023-07-02T07:48:26;98314.44;;;20.79;55.73
27144;BME280;14672;50.250;8.312;2023-07-02T07:50:52;98313.19;;;20.74;55.29
27144;BME280;14672;50.250;8.312;2023-07-02T07:53:18;98309.63;;;20.87;54.59
27144;BME280;14672;50.250;8.312;2023-07-02T07:55:44;98307.00;;;20.89;54.70
27144;BME280;14672;50.250;8.312;2023-07-02T07:58:09;98304.66;;;21.06;54.69
27144;BME280;14672;50.250;8.312;2023-07-02T08:00:35;98320.59;;;20.94;54.64
27144;BME280;14672;50.250;8.312;2023-07-02T08:03:01;98316.13;;;20.93;54.18
27144;BME280;14672;50.250;8.312;2023-07-02T08:05:30;98311.06;;;20.99;53.56
27144;BME280;14672;50.250;8.312;2023-07-02T08:07:56;98323.69;;;20.96;53.89
27144;BME280;14672;50.250;8.312;2023-07-02T08:10:22;98308.09;;;21.04;53.93
27144;BME280;14672;50.250;8.312;2023-07-02T08:12:49;98317.00;;;21.06;53.39
27144;BME280;14672;50.250;8.312;2023-07-02T08:15:18;98316.47;;;21.08;53.24
27144;BME280;14672;50.250;8.312;2023-07-02T08:17:46;98314.56;;;21.16;53.51
27144;BME280;14672;50.250;8.312;2023-07-02T08:20:15;98314.19;;;21.25;53.65
27144;BME280;14672;50.250;8.312;2023-07-02T08:22:42;98318.66;;;21.02;53.72
27144;BME280;14672;50.250;8.312;2023-07-02T08:25:11;98317.38;;;21.22;53.33
27144;BME280;14672;50.250;8.312;2023-07-02T08:27:36;98318.78;;;21.34;52.41
27144;BME280;14672;50.250;8.312;2023-07-02T08:30:03;98313.31;;;21.30;52.40
27144;BME280;14672;50.250;8.312;2023-07-02T08:32:29;98316.13;;;21.36;52.71
27144;BME280;14672;50.250;8.312;2023-07-02T08:34:55;98316.75;;;21.47;52.56
27144;BME280;14672;50.250;8.312;2023-07-02T08:37:21;98324.09;;;21.48;51.62
27144;BME280;14672;50.250;8.312;2023-07-02T08:39:50;98331.19;;;21.47;51.90
27144;BME280;14672;50.250;8.312;2023-07-02T08:42:16;98322.81;;;21.63;51.28
27144;BME280;14672;50.250;8.312;2023-07-02T08:44:45;98329.19;;;21.61;50.72
27144;BME280;14672;50.250;8.312;2023-07-02T08:47:11;98329.09;;;21.48;49.30
27144;BME280;14672;50.250;8.312;2023-07-02T08:49:37;98321.56;;;21.77;50.15
27144;BME280;14672;50.250;8.312;2023-07-02T08:52:03;98315.78;;;21.77;49.26
27144;BME280;14672;50.250;8.312;2023-07-02T08:54:29;98316.03;;;21.97;49.69
27144;BME280;14672;50.250;8.312;2023-07-02T08:56:55;98309.03;;;22.06;49.52
27144;BME280;14672;50.250;8.312;2023-07-02T08:59:21;98336.56;;;21.94;49.24
27144;BME280;14672;50.250;8.312;2023-07-02T09:01:49;98331.25;;;21.79;49.51
27144;BME280;14672;50.250;8.312;2023-07-02T09:04:20;98322.03;;;21.99;49.77
27144;BME280;14672;50.250;8.312;2023-07-02T09:07:04;98332.16;;;22.06;49.71
27144;BME280;14672;50.250;8.312;2023-07-02T09:09:50;98336.56;;;22.13;49.00
27144;BME280;14672;50.250;8.312;2023-07-02T09:12:30;98335.84;;;22.07;48.84
27144;BME280;14672;50.250;8.312;2023-07-02T09:15:02;98338.13;;;21.95;48.05
27144;BME280;14672;50.250;8.312;2023-07-02T09:17:32;98343.06;;;22.00;48.49
27144;BME280;14672;50.250;8.312;2023-07-02T09:20:00;98343.53;;;22.04;49.07
27144;BME280;14672;50.250;8.312;2023-07-02T09:22:26;98332.88;;;22.12;48.97
27144;BME280;14672;50.250;8.312;2023-07-02T09:24:54;98336.03;;;22.27;48.49
27144;BME280;14672;50.250;8.312;2023-07-02T09:27:21;98336.03;;;22.27;48.83
27144;BME280;14672;50.250;8.312;2023-07-02T09:29:51;98336.94;;;22.35;49.10
27144;BME280;14672;50.250;8.312;2023-07-02T09:32:26;98332.63;;;22.55;48.79
27144;BME280;14672;50.250;8.312;2023-07-02T09:34:54;98333.19;;;22.54;48.99
27144;BME280;14672;50.250;8.312;2023-07-02T09:37:21;98355.63;;;22.34;48.83
27144;BME280;14672;50.250;8.312;2023-07-02T09:39:50;98346.03;;;22.26;48.67
27144;BME280;14672;50.250;8.312;2023-07-02T09:42:21;98349.81;;;22.21;48.57
27144;BME280;14672;50.250;8.312;2023-07-02T09:44:47;98354.63;;;22.32;48.07
27144;BME280;14672;50.250;8.312;2023-07-02T09:47:18;98341.50;;;22.31;47.85
27144;BME280;14672;50.250;8.312;2023-07-02T09:50:05;98360.63;;;22.21;48.35
27144;BME280;14672;50.250;8.312;2023-07-02T09:52:33;98338.38;;;22.29;47.82
27144;BME280;14672;50.250;8.312;2023-07-02T09:54:59;98352.06;;;22.28;47.05
27144;BME280;14672;50.250;8.312;2023-07-02T09:57:25;98338.38;;;22.29;46.75
27144;BME280;14672;50.250;8.312;2023-07-02T09:59:52;98352.88;;;22.42;46.96
27144;BME280;14672;50.250;8.312;2023-07-02T10:02:18;98318.91;;;22.29;46.96
27144;BME280;14672;50.250;8.312;2023-07-02T10:04:46;98342.53;;;22.46;47.16
27144;BME280;14672;50.250;8.312;2023-07-02T10:07:13;98336.41;;;22.50;47.18
27144;BME280;14672;50.250;8.312;2023-07-02T10:09:50;98335.81;;;22.83;46.14
27144;BME280;14672;50.250;8.312;2023-07-02T10:12:21;98356.19;;;22.78;44.86
27144;BME280;14672;50.250;8.312;2023-07-02T10:14:49;98336.16;;;22.93;45.01
27144;BME280;14672;50.250;8.312;2023-07-02T10:17:36;98340.94;;;23.04;45.23
27144;BME280;14672;50.250;8.312;2023-07-02T10:20:07;98349.19;;;22.86;44.99
27144;BME280;14672;50.250;8.312;2023-07-02T10:22:50;98331.34;;;23.22;45.33
27144;BME280;14672;50.250;8.312;2023-07-02T10:25:31;98326.22;;;23.15;44.32
27144;BME280;14672;50.250;8.312;2023-07-02T10:27:58;98325.44;;;23.27;44.80
27144;BME280;14672;50.250;8.312;2023-07-02T10:30:37;98316.28;;;23.36;44.11
27144;BME280;14672;50.250;8.312;2023-07-02T10:33:14;98344.06;;;23.19;44.28
27144;BME280;14672;50.250;8.312;2023-07-02T10:35:42;98327.69;;;22.95;43.67
27144;BME280;14672;50.250;8.312;2023-07-02T10:38:23;98337.72;;;22.94;42.86
27144;BME280;14672;50.250;8.312;2023-07-02T10:40:56;98316.84;;;23.22;43.27
27144;BME280;14672;50.250;8.312;2023-07-02T10:43:26;98320.84;;;23.45;43.08
27144;BME280;14672;50.250;8.312;2023-07-02T10:45:54;98327.56;;;23.27;43.10
27144;BME280;14672;50.250;8.312;2023-07-02T10:48:19;98323.06;;;23.39;42.39
27144;BME280;14672;50.250;8.312;2023-07-02T10:50:45;98316.44;;;23.65;41.10
27144;BME280;14672;50.250;8.312;2023-07-02T10:53:18;98336.78;;;23.38;41.41
27144;BME280;14672;50.250;8.312;2023-07-02T10:55:45;98337.91;;;23.35;41.06
27144;BME280;14672;50.250;8.312;2023-07-02T10:58:12;98320.97;;;23.26;41.72
27144;BME280;14672;50.250;8.312;2023-07-02T11:00:50;98319.88;;;23.43;41.81
27144;BME280;14672;50.250;8.312;2023-07-02T11:03:25;98326.19;;;23.41;42.83
27144;BME280;14672;50.250;8.312;2023-07-02T11:05:53;98323.06;;;23.39;42.52
27144;BME280;14672;50.250;8.312;2023-07-02T11:08:20;98321.97;;;23.55;42.17
27144;BME280;14672;50.250;8.312;2023-07-02T11:10:47;98324.69;;;23.74;42.12
27144;BME280;14672;50.250;8.312;2023-07-02T11:13:15;98328.44;;;23.82;41.85
27144;BME280;14672;50.250;8.312;2023-07-02T11:15:41;98321.22;;;23.75;41.58
27144;BME280;14672;50.250;8.312;2023-07-02T11:18:15;98322.91;;;23.71;41.78
27144;BME280;14672;50.250;8.312;2023-07-02T11:20:44;98322.44;;;23.80;42.17
27144;BME280;14672;50.250;8.312;2023-07-02T11:23:21;98333.63;;;23.97;42.28
27144;BME280;14672;50.250;8.312;2023-07-02T11:26:00;98337.91;;;23.96;40.73
27144;BME280;14672;50.250;8.312;2023-07-02T11:28:27;98337.38;;;23.84;39.57
27144;BME280;14672;50.250;8.312;2023-07-02T11:30:54;98335.34;;;24.13;39.70
27144;BME280;14672;50.250;8.312;2023-07-02T11:33:40;98331.16;;;24.01;39.15
27144;BME280;14672;50.250;8.312;2023-07-02T11:36:07;98330.47;;;24.08;39.14
27144;BME280;14672;50.250;8.312;2023-07-02T11:38:34;98330.22;;;24.19;39.13
27144;BME280;14672;50.250;8.312;2023-07-02T11:41:03;98320.97;;;24.20;39.72
27144;BME280;14672;50.250;8.312;2023-07-02T11:43:29;98316.06;;;24.15;39.65
27144;BME280;14672;50.250;8.312;2023-07-02T11:45:55;98327.88;;;24.17;39.77
27144;BME280;14672;50.250;8.312;2023-07-02T11:48:20;98325.28;;;24.27;40.39
27144;BME280;14672;50.250;8.312;2023-07-02T11:50:46;98333.50;;;24.36;42.05
27144;BME280;14672;50.250;8.312;2023-07-02T11:53:12;98334.38;;;24.10;42.58
27144;BME280;14672;50.250;8.312;2023-07-02T11:55:38;98351.09;;;24.17;41.17
27144;BME280;14672;50.250;8.312;2023-07-02T11:58:04;98349.09;;;23.78;41.82
27144;BME280;14672;50.250;8.312;2023-07-02T12:00:30;98344.69;;;23.98;40.76
27144;BME280;14672;50.250;8.312;2023-07-02T12:02:55;98330.69;;;24.10;41.01
27144;BME280;14672;50.250;8.312;2023-07-02T12:05:21;98336.94;;;24.55;41.32
27144;BME280;14672;50.250;8.312;2023-07-02T12:07:47;98333.47;;;24.15;40.39
27144;BME280;14672;50.250;8.312;2023-07-02T12:10:13;98329.25;;;24.03;40.21
27144;BME280;14672;50.250;8.312;2023-07-02T12:12:38;98336.13;;;24.13;40.33
27144;BME280;14672;50.250;8.312;2023-07-02T12:15:05;98351.69;;;24.03;40.85
27144;BME280;14672;50.250;8.312;2023-07-02T12:17:31;98345.53;;;24.06;40.84
27144;BME280;14672;50.250;8.312;2023-07-02T12:19:58;98333.69;;;24.17;40.96
27144;BME280;14672;50.250;8.312;2023-07-02T12:22:26;98330.34;;;24.55;40.35
27144;BME280;14672;50.250;8.312;2023-07-02T12:24:52;98339.97;;;24.70;40.05
27144;BME280;14672;50.250;8.312;2023-07-02T12:27:21;98340.91;;;24.45;37.26
27144;BME280;14672;50.250;8.312;2023-07-02T12:29:47;98343.19;;;24.59;36.51
27144;BME280;14672;50.250;8.312;2023-07-02T12:32:14;98321.53;;;24.89;36.19
27144;BME280;14672;50.250;8.312;2023-07-02T12:34:40;98335.94;;;25.02;36.99
27144;BME280;14672;50.250;8.312;2023-07-02T12:37:06;98332.91;;;25.07;37.33
27144;BME280;14672;50.250;8.312;2023-07-02T12:39:32;98351.88;;;25.08;37.76
27144;BME280;14672;50.250;8.312;2023-07-02T12:41:57;98328.03;;;25.38;38.05
27144;BME280;14672;50.250;8.312;2023-07-02T12:44:23;98325.09;;;25.31;37.72
27144;BME280;14672;50.250;8.312;2023-07-02T12:46:49;98332.31;;;25.45;38.26
27144;BME280;14672;50.250;8.312;2023-07-02T12:49:15;98344.69;;;25.38;37.50
27144;BME280;14672;50.250;8.312;2023-07-02T12:51:41;98338.19;;;25.52;37.28
27144;BME280;14672;50.250;8.312;2023-07-02T12:54:07;98346.91;;;25.52;37.45
27144;BME280;14672;50.250;8.312;2023-07-02T12:56:32;98342.59;;;25.46;36.88
27144;BME280;14672;50.250;8.312;2023-07-02T12:58:58;98339.63;;;25.66;37.39
27144;BME280;14672;50.250;8.312;2023-07-02T13:01:24;98363.28;;;25.63;36.74
27144;BME280;14672;50.250;8.312;2023-07-02T13:03:50;98354.75;;;25.37;36.49
27144;BME280;14672;50.250;8.312;2023-07-02T13:06:16;98356.50;;;25.68;36.95